createdAt,value
2023-02-16T00:01:19.217Z,24.27
2023-02-16T00:03:55.185Z,24.17
2023-02-16T00:06:25.130Z,24.57
2023-02-16T00:08:55.832Z,24.43
2023-02-16T00:11:41.561Z,24.37
2023-02-16T00:14:12.773Z,25.07
2023-02-16T00:16:42.417Z,24.00
2023-02-16T00:19:26.528Z,23.70
2023-02-16T00:21:58.047Z,25.40
2023-02-16T00:24:28.924Z,24.27
2023-02-16T00:26:58.822Z,23.63
2023-02-16T00:29:30.752Z,26.00
2023-02-16T00:32:01.991Z,23.33
2023-02-16T00:34:36.420Z,25.97
2023-02-16T00:37:07.750Z,27.10
2023-02-16T00:39:37.600Z,26.90
2023-02-16T00:42:08.992Z,24.20
2023-02-16T00:44:39.640Z,26.23
2023-02-16T00:47:19.856Z,27.00
2023-02-16T00:49:53.352Z,25.80
2023-02-16T00:52:34.949Z,27.10
2023-02-16T00:55:05.394Z,26.57
2023-02-16T00:57:37.523Z,26.10
2023-02-16T01:00:10.391Z,27.33
2023-02-16T01:02:39.834Z,28.47
2023-02-16T01:05:12.095Z,26.70
2023-02-16T01:07:53.994Z,25.17
2023-02-16T01:10:36.312Z,26.00
2023-02-16T01:13:05.869Z,26.83
2023-02-16T01:15:35.338Z,26.87
2023-02-16T01:18:04.918Z,28.20
2023-02-16T01:20:38.077Z,28.00
2023-02-16T01:23:07.600Z,29.27
2023-02-16T01:25:37.100Z,30.07
2023-02-16T01:28:06.885Z,26.63
2023-02-16T01:30:36.295Z,28.23
2023-02-16T01:33:05.689Z,26.60
2023-02-16T01:35:37.918Z,28.47
2023-02-16T01:38:07.332Z,27.37
2023-02-16T01:40:41.308Z,29.77
2023-02-16T01:43:20.228Z,28.97
2023-02-16T01:45:52.743Z,26.93
2023-02-16T01:48:25.089Z,27.57
2023-02-16T01:51:05.031Z,27.20
2023-02-16T01:53:36.639Z,26.10
2023-02-16T01:56:08.894Z,27.53
2023-02-16T01:58:42.903Z,28.53
2023-02-16T02:01:39.485Z,27.43
2023-02-16T02:04:35.591Z,28.60
2023-02-16T02:07:07.965Z,27.30
2023-02-16T02:09:41.862Z,28.67
2023-02-16T02:12:18.195Z,29.50
2023-02-16T02:14:49.184Z,28.27
2023-02-16T02:17:21.345Z,28.40
2023-02-16T02:20:15.624Z,28.30
2023-02-16T02:23:30.296Z,26.93
2023-02-16T02:26:29.792Z,29.37
2023-02-16T02:29:13.296Z,30.00
2023-02-16T02:31:51.611Z,29.47
2023-02-16T02:34:27.395Z,25.63
2023-02-16T02:37:07.050Z,29.17
2023-02-16T02:39:41.485Z,27.67
2023-02-16T02:42:15.060Z,26.70
2023-02-16T02:44:51.056Z,27.37
2023-02-16T02:47:20.754Z,30.23
2023-02-16T02:49:53.953Z,28.63
2023-02-16T02:52:23.968Z,28.97
2023-02-16T02:55:05.983Z,29.17
2023-02-16T02:57:50.111Z,28.30
2023-02-16T03:00:38.261Z,31.90
2023-02-16T03:03:12.411Z,27.77
2023-02-16T03:05:48.026Z,29.30
2023-02-16T03:08:18.971Z,29.30
2023-02-16T03:11:03.955Z,28.90
2023-02-16T03:13:37.354Z,25.90
2023-02-16T03:16:12.574Z,29.20
2023-02-16T03:18:55.568Z,28.10
2023-02-16T03:21:37.514Z,28.97
2023-02-16T03:24:23.055Z,29.93
2023-02-16T03:27:09.334Z,30.30
2023-02-16T03:29:40.267Z,31.97
2023-02-16T03:32:12.364Z,29.30
2023-02-16T03:34:41.879Z,26.00
2023-02-16T03:37:11.518Z,30.63
2023-02-16T03:39:53.238Z,31.17
2023-02-16T03:42:23.591Z,30.50
2023-02-16T03:44:53.203Z,29.67
2023-02-16T03:47:25.187Z,29.70
2023-02-16T03:49:54.868Z,27.70
2023-02-16T03:52:24.313Z,30.30
2023-02-16T03:54:53.726Z,30.80
2023-02-16T03:57:23.146Z,29.70
2023-02-16T03:59:52.724Z,30.50
2023-02-16T04:02:25.499Z,29.63
2023-02-16T04:04:54.967Z,28.73
2023-02-16T04:07:24.399Z,29.83
2023-02-16T04:09:53.825Z,30.40
2023-02-16T04:12:35.746Z,29.30
2023-02-16T04:15:05.231Z,32.07
2023-02-16T04:17:37.358Z,31.40
2023-02-16T04:20:07.806Z,29.57
2023-02-16T04:22:37.230Z,31.53
2023-02-16T04:25:07.197Z,30.77
2023-02-16T04:27:36.788Z,31.57
2023-02-16T04:30:07.561Z,30.30
2023-02-16T04:32:39.672Z,29.40
2023-02-16T04:35:10.153Z,29.07
2023-02-16T04:37:39.842Z,29.43
2023-02-16T04:40:13.720Z,31.33
2023-02-16T04:42:43.257Z,28.60
2023-02-16T04:45:14.004Z,30.00
2023-02-16T04:47:46.025Z,30.67
2023-02-16T04:50:15.542Z,29.10
2023-02-16T04:52:45.067Z,28.50
2023-02-16T04:55:14.467Z,28.97
2023-02-16T04:57:44.219Z,29.40
2023-02-16T05:00:15.298Z,28.10
2023-02-16T05:02:47.763Z,29.43
2023-02-16T05:05:17.188Z,31.43
2023-02-16T05:07:46.696Z,31.97
2023-02-16T05:10:16.152Z,28.70
2023-02-16T05:12:58.047Z,29.40
2023-02-16T05:15:27.476Z,29.00
2023-02-16T05:17:59.438Z,29.77
2023-02-16T05:20:49.090Z,25.83
2023-02-16T05:23:19.835Z,28.10
2023-02-16T05:25:49.276Z,31.67
2023-02-16T05:28:18.715Z,30.10
2023-02-16T05:30:48.190Z,28.70
2023-02-16T05:33:20.216Z,30.37
2023-02-16T05:35:49.625Z,28.87
2023-02-16T05:38:19.283Z,29.47
2023-02-16T05:40:48.739Z,29.07
2023-02-16T05:43:19.172Z,24.57
2023-02-16T05:45:48.560Z,25.60
2023-02-16T05:48:20.887Z,28.27
2023-02-16T05:50:50.292Z,27.93
2023-02-16T05:53:19.713Z,28.37
2023-02-16T05:55:49.248Z,32.17
2023-02-16T05:58:18.674Z,29.60
2023-02-16T06:00:48.255Z,27.63
2023-02-16T06:03:20.351Z,28.90
2023-02-16T06:05:49.839Z,27.33
2023-02-16T06:08:19.244Z,28.67
2023-02-16T06:10:48.864Z,27.87
2023-02-16T06:13:18.309Z,28.57
2023-02-16T06:15:47.809Z,27.47
2023-02-16T06:18:19.924Z,26.70
2023-02-16T06:20:49.397Z,28.93
2023-02-16T06:23:19.385Z,29.77
2023-02-16T06:25:52.080Z,28.77
2023-02-16T06:28:21.472Z,27.57
2023-02-16T06:30:50.873Z,28.97
2023-02-16T06:33:24.412Z,29.30
2023-02-16T06:35:53.879Z,29.23
2023-02-16T06:38:23.248Z,27.63
2023-02-16T06:40:54.562Z,28.50
2023-02-16T06:43:24.018Z,27.03
2023-02-16T06:45:53.458Z,28.50
2023-02-16T06:48:25.428Z,28.37
2023-02-16T06:50:55.157Z,26.27
2023-02-16T06:53:25.511Z,29.97
2023-02-16T06:55:55.080Z,29.70
2023-02-16T06:58:24.583Z,30.03
2023-02-16T07:00:54.068Z,27.37
2023-02-16T07:03:26.111Z,29.63
2023-02-16T07:05:55.500Z,27.63
2023-02-16T07:08:25.128Z,28.87
2023-02-16T07:10:56.228Z,27.30
2023-02-16T07:13:25.756Z,30.97
2023-02-16T07:15:55.484Z,30.27
2023-02-16T07:18:27.557Z,29.10
2023-02-16T07:20:56.991Z,29.77
2023-02-16T07:23:26.719Z,30.10
2023-02-16T07:25:56.212Z,26.93
2023-02-16T07:28:25.630Z,29.57
2023-02-16T07:30:55.222Z,29.60
2023-02-16T07:33:27.221Z,28.83
2023-02-16T07:35:56.596Z,31.00
2023-02-16T07:38:26.022Z,30.53
2023-02-16T07:40:58.089Z,30.17
2023-02-16T07:43:27.965Z,32.30
2023-02-16T07:45:57.413Z,32.53
2023-02-16T07:48:29.820Z,28.00
2023-02-16T07:50:59.759Z,29.50
2023-02-16T07:53:29.194Z,31.93
2023-02-16T07:55:58.703Z,31.33
2023-02-16T07:58:30.751Z,27.10
2023-02-16T08:01:08.474Z,29.53
2023-02-16T08:03:40.740Z,29.20
2023-02-16T08:06:10.928Z,29.50
2023-02-16T08:08:40.741Z,29.80
2023-02-16T08:11:14.063Z,31.30
2023-02-16T08:13:43.918Z,30.20
2023-02-16T08:16:14.324Z,30.80
2023-02-16T08:18:46.578Z,25.27
2023-02-16T08:21:17.511Z,30.00
2023-02-16T08:23:49.120Z,38.17
2023-02-16T08:26:20.076Z,30.33
2023-02-16T08:28:50.649Z,24.17
2023-02-16T08:31:23.126Z,32.17
2023-02-16T08:33:56.032Z,30.30
2023-02-16T08:36:26.586Z,30.17
2023-02-16T08:38:56.928Z,29.57
2023-02-16T08:41:28.125Z,31.73
2023-02-16T08:43:58.270Z,31.70
2023-02-16T08:46:28.409Z,26.73
2023-02-16T08:49:01.355Z,26.47
2023-02-16T08:51:32.110Z,22.93
2023-02-16T08:54:03.777Z,32.27
2023-02-16T08:56:35.385Z,28.33
2023-02-16T08:59:05.247Z,28.53
2023-02-16T09:01:36.016Z,29.10
2023-02-16T09:04:08.453Z,31.17
2023-02-16T09:06:39.878Z,30.87
2023-02-16T09:09:09.561Z,24.87
2023-02-16T09:11:39.968Z,26.90
2023-02-16T09:14:09.668Z,26.80
2023-02-16T09:16:45.680Z,29.97
2023-02-16T09:19:19.644Z,30.83
2023-02-16T09:21:50.680Z,28.80
2023-02-16T09:24:20.204Z,31.00
2023-02-16T09:26:49.760Z,25.37
2023-02-16T09:29:19.186Z,24.03
2023-02-16T09:31:48.706Z,28.50
2023-02-16T09:34:22.696Z,30.27
2023-02-16T09:36:53.041Z,21.07
2023-02-16T09:39:22.845Z,28.57
2023-02-16T09:42:03.487Z,23.43
2023-02-16T09:44:41.412Z,33.37
2023-02-16T09:47:14.465Z,30.13
2023-02-16T09:49:46.787Z,25.57
2023-02-16T09:52:21.579Z,33.37
2023-02-16T09:54:54.876Z,30.77
2023-02-16T09:57:36.344Z,27.07
2023-02-16T10:00:09.157Z,33.53
2023-02-16T10:02:46.914Z,26.73
2023-02-16T10:05:24.672Z,28.70
2023-02-16T10:08:00.435Z,27.67
2023-02-16T10:10:39.337Z,27.57
2023-02-16T10:13:19.017Z,26.27
2023-02-16T10:15:49.715Z,30.43
2023-02-16T10:18:26.986Z,29.73
2023-02-16T10:21:01.447Z,25.90
2023-02-16T10:23:43.560Z,27.83
2023-02-16T10:26:19.468Z,31.80
2023-02-16T10:28:50.546Z,29.30
2023-02-16T10:31:26.201Z,29.80
2023-02-16T10:34:04.224Z,32.10
2023-02-16T10:36:47.096Z,31.23
2023-02-16T10:39:23.791Z,29.80
2023-02-16T10:41:57.679Z,32.10
2023-02-16T10:44:31.810Z,32.00
2023-02-16T10:47:06.422Z,31.50
2023-02-16T10:49:38.659Z,34.00
2023-02-16T10:52:10.689Z,31.73
2023-02-16T10:54:40.185Z,32.20
2023-02-16T10:57:11.313Z,24.23
2023-02-16T10:59:42.817Z,32.30
2023-02-16T11:02:21.828Z,31.60
2023-02-16T11:04:52.850Z,24.40
2023-02-16T11:07:26.008Z,32.13
2023-02-16T11:09:57.379Z,26.60
2023-02-16T11:12:30.070Z,29.23
2023-02-16T11:15:03.351Z,29.30
2023-02-16T11:17:33.971Z,29.67
2023-02-16T11:20:09.532Z,25.97
2023-02-16T11:22:42.654Z,32.00
2023-02-16T11:25:28.155Z,38.10
2023-02-16T11:27:59.812Z,34.10
2023-02-16T11:30:33.150Z,38.40
2023-02-16T11:33:04.735Z,34.53
2023-02-16T11:35:35.904Z,25.70
2023-02-16T11:38:24.348Z,30.73
2023-02-16T11:40:55.483Z,35.80
2023-02-16T11:43:25.154Z,37.27
2023-02-16T11:46:00.621Z,28.20
2023-02-16T11:48:32.632Z,29.33
2023-02-16T11:51:04.308Z,30.33
2023-02-16T11:53:37.837Z,34.93
2023-02-16T11:56:24.637Z,32.13
2023-02-16T11:59:16.049Z,31.10
2023-02-16T12:01:58.282Z,24.20
2023-02-16T12:04:38.321Z,33.20
2023-02-16T12:07:15.564Z,30.77
2023-02-16T12:09:53.728Z,26.90
2023-02-16T12:12:34.241Z,32.33
2023-02-16T12:15:07.747Z,42.07
2023-02-16T12:17:50.087Z,26.07
2023-02-16T12:20:32.146Z,34.73
2023-02-16T12:23:08.153Z,34.90
2023-02-16T12:25:42.447Z,30.20
2023-02-16T12:28:17.341Z,30.80
2023-02-16T12:30:55.442Z,29.20
2023-02-16T12:33:33.291Z,32.63
2023-02-16T12:36:13.411Z,32.13
2023-02-16T12:38:51.162Z,35.53
2023-02-16T12:41:33.576Z,36.60
2023-02-16T12:44:06.256Z,38.27
2023-02-16T12:46:39.752Z,36.00
2023-02-16T12:49:16.424Z,26.70
2023-02-16T12:51:48.849Z,35.90
2023-02-16T12:54:20.808Z,38.20
2023-02-16T12:56:57.829Z,32.80
2023-02-16T12:59:33.435Z,39.63
2023-02-16T13:02:03.470Z,28.13
2023-02-16T13:04:39.707Z,42.90
2023-02-16T13:07:16.466Z,40.00
2023-02-16T13:09:52.997Z,36.00
2023-02-16T13:12:31.443Z,42.60
2023-02-16T13:15:08.022Z,41.10
2023-02-16T13:17:41.224Z,40.00
2023-02-16T13:20:17.258Z,38.07
2023-02-16T13:22:58.978Z,41.20
2023-02-16T13:25:51.232Z,43.43
2023-02-16T13:28:43.797Z,43.50
2023-02-16T13:31:27.110Z,44.70
2023-02-16T13:34:11.298Z,42.50
2023-02-16T13:36:52.186Z,45.67
2023-02-16T13:39:49.899Z,40.50
2023-02-16T13:42:32.988Z,39.73
2023-02-16T13:45:07.133Z,36.00
2023-02-16T13:47:41.280Z,38.43
2023-02-16T13:50:23.934Z,40.20
2023-02-16T13:52:54.832Z,40.63
2023-02-16T13:55:27.001Z,39.43
2023-02-16T13:58:01.376Z,41.60
2023-02-16T14:00:36.693Z,38.83
2023-02-16T14:03:12.377Z,40.80
2023-02-16T14:05:43.139Z,41.43
2023-02-16T14:08:24.495Z,34.27
2023-02-16T14:11:12.418Z,39.47
2023-02-16T14:13:50.387Z,33.87
2023-02-16T14:16:37.972Z,39.03
2023-02-16T14:19:20.548Z,41.17
2023-02-16T14:21:51.395Z,41.10
2023-02-16T14:24:33.534Z,40.40
2023-02-16T14:27:04.598Z,35.17
2023-02-16T14:29:35.232Z,42.60
2023-02-16T14:32:10.598Z,42.47
2023-02-16T14:34:43.200Z,42.80
2023-02-16T14:37:31.703Z,41.10
2023-02-16T14:40:15.417Z,41.83
2023-02-16T14:42:51.330Z,40.37
2023-02-16T14:45:53.650Z,41.60
2023-02-16T14:48:48.586Z,41.87
2023-02-16T14:51:32.546Z,37.30
2023-02-16T14:54:20.980Z,43.87
2023-02-16T14:56:52.883Z,38.20
2023-02-16T14:59:31.352Z,40.97
2023-02-16T15:02:01.102Z,41.40
2023-02-16T15:04:38.331Z,40.40
2023-02-16T15:07:07.869Z,40.70
2023-02-16T15:09:37.749Z,41.80
2023-02-16T15:12:27.739Z,43.57
2023-02-16T15:14:59.311Z,39.37
2023-02-16T15:17:32.893Z,36.20
2023-02-16T15:20:12.067Z,42.70
2023-02-16T15:22:44.762Z,43.00
2023-02-16T15:25:25.601Z,42.60
2023-02-16T15:27:59.156Z,44.10
2023-02-16T15:30:31.031Z,39.67
2023-02-16T15:33:02.360Z,44.10
2023-02-16T15:35:38.629Z,46.23
2023-02-16T15:38:11.111Z,45.43
2023-02-16T15:40:40.567Z,43.80
2023-02-16T15:43:22.403Z,43.17
2023-02-16T15:45:52.784Z,45.93
2023-02-16T15:48:29.330Z,42.80
2023-02-16T15:51:05.345Z,44.90
2023-02-16T15:53:48.231Z,43.10
2023-02-16T15:56:32.656Z,47.73
2023-02-16T15:59:03.610Z,44.80
2023-02-16T16:01:37.436Z,44.23
2023-02-16T16:04:11.360Z,43.07
2023-02-16T16:06:43.635Z,47.40
2023-02-16T16:09:23.750Z,46.23
2023-02-16T16:11:53.880Z,48.50
2023-02-16T16:14:24.398Z,44.50
2023-02-16T16:16:54.339Z,48.97
2023-02-16T16:19:26.248Z,44.50
2023-02-16T16:21:58.842Z,45.23
2023-02-16T16:24:38.993Z,45.17
2023-02-16T16:27:11.038Z,44.67
2023-02-16T16:29:44.208Z,43.27
2023-02-16T16:32:21.433Z,49.20
2023-02-16T16:34:51.484Z,47.60
2023-02-16T16:37:29.044Z,45.70
2023-02-16T16:40:04.745Z,48.27
2023-02-16T16:42:34.622Z,48.87
2023-02-16T16:45:07.658Z,48.90
2023-02-16T16:47:40.076Z,50.97
2023-02-16T16:50:31.045Z,50.70
2023-02-16T16:53:03.654Z,48.50
2023-02-16T16:55:35.546Z,27.13
2023-02-16T16:58:08.009Z,47.50
2023-02-16T17:00:39.818Z,48.90
2023-02-16T17:03:10.886Z,49.53
2023-02-16T17:05:41.524Z,42.40
2023-02-16T17:08:14.749Z,49.23
2023-02-16T17:10:44.320Z,46.00
2023-02-16T17:13:17.107Z,46.50
2023-02-16T17:15:49.515Z,48.67
2023-02-16T17:18:21.304Z,50.30
2023-02-16T17:20:51.354Z,45.37
2023-02-16T17:23:26.364Z,49.07
2023-02-16T17:25:55.802Z,44.07
2023-02-16T17:28:25.264Z,51.13
2023-02-16T17:30:54.684Z,50.83
2023-02-16T17:33:24.117Z,51.20
2023-02-16T17:35:53.508Z,51.23
2023-02-16T17:38:26.818Z,49.97
2023-02-16T17:40:58.178Z,48.53
2023-02-16T17:43:29.035Z,49.83
2023-02-16T17:46:01.312Z,50.10
2023-02-16T17:48:33.360Z,50.77
2023-02-16T17:51:02.904Z,49.20
2023-02-16T17:53:34.959Z,51.60
2023-02-16T17:56:04.639Z,47.27
2023-02-16T17:58:34.211Z,47.57
2023-02-16T18:01:03.656Z,50.00
2023-02-16T18:03:33.120Z,49.20
2023-02-16T18:06:02.770Z,46.73
2023-02-16T18:08:34.954Z,44.50
2023-02-16T18:11:04.580Z,46.27
2023-02-16T18:13:34.174Z,45.40
2023-02-16T18:16:07.013Z,40.03
2023-02-16T18:18:39.290Z,43.43
2023-02-16T18:21:09.712Z,44.73
2023-02-16T18:23:42.189Z,43.70
2023-02-16T18:26:14.875Z,41.83
2023-02-16T18:28:44.320Z,47.80
2023-02-16T18:31:14.617Z,44.50
2023-02-16T18:33:44.173Z,42.77
2023-02-16T18:36:13.570Z,42.70
2023-02-16T18:38:45.612Z,44.17
2023-02-16T18:41:15.958Z,42.83
2023-02-16T18:43:45.350Z,44.47
2023-02-16T18:46:14.770Z,44.67
2023-02-16T18:48:44.307Z,44.33
2023-02-16T18:51:16.504Z,43.33
2023-02-16T18:53:48.505Z,44.27
2023-02-16T18:56:18.090Z,41.37
2023-02-16T18:58:47.469Z,41.00
2023-02-16T19:01:17.296Z,41.57
2023-02-16T19:03:46.742Z,39.33
2023-02-16T19:06:16.191Z,43.57
2023-02-16T19:08:48.369Z,42.80
2023-02-16T19:11:17.745Z,43.37
2023-02-16T19:13:47.152Z,40.10
2023-02-16T19:16:16.704Z,38.57
2023-02-16T19:18:46.132Z,41.90
2023-02-16T19:21:16.641Z,39.47
2023-02-16T19:23:48.811Z,46.67
2023-02-16T19:26:19.493Z,42.27
2023-02-16T19:28:49.529Z,43.33
2023-02-16T19:31:21.523Z,43.30
2023-02-16T19:33:51.686Z,43.97
2023-02-16T19:36:22.325Z,47.13
2023-02-16T19:38:54.570Z,38.93
2023-02-16T19:41:26.640Z,45.20
2023-02-16T19:43:56.135Z,42.20
2023-02-16T19:46:25.969Z,49.13
2023-02-16T19:48:56.874Z,44.03
2023-02-16T19:51:26.638Z,43.23
2023-02-16T19:53:58.674Z,44.87
2023-02-16T19:56:29.061Z,47.70
2023-02-16T19:58:59.920Z,46.23
2023-02-16T20:01:30.870Z,45.40
2023-02-16T20:04:01.045Z,47.00
2023-02-16T20:06:32.352Z,45.40
2023-02-16T20:09:04.419Z,47.67
2023-02-16T20:11:34.333Z,50.10
2023-02-16T20:14:03.953Z,50.20
2023-02-16T20:16:33.414Z,48.57
2023-02-16T20:19:02.840Z,49.33
2023-02-16T20:21:32.681Z,51.93
2023-02-16T20:24:06.239Z,51.33
2023-02-16T20:26:37.561Z,52.70
2023-02-16T20:29:08.148Z,55.60
2023-02-16T20:31:39.717Z,51.90
2023-02-16T20:34:09.878Z,52.47
2023-02-16T20:36:39.751Z,53.77
2023-02-16T20:39:12.018Z,48.63
2023-02-16T20:41:41.549Z,52.20
2023-02-16T20:44:11.392Z,50.70
2023-02-16T20:46:42.079Z,48.90
2023-02-16T20:49:13.459Z,48.70
2023-02-16T20:51:43.061Z,43.50
2023-02-16T20:54:15.445Z,49.43
2023-02-16T20:56:44.926Z,47.57
2023-02-16T20:59:15.089Z,46.40
2023-02-16T21:01:46.566Z,48.33
2023-02-16T21:04:17.716Z,51.67
2023-02-16T21:06:47.620Z,47.73
2023-02-16T21:09:19.984Z,50.27
2023-02-16T21:11:49.410Z,49.97
2023-02-16T21:14:18.826Z,51.97
2023-02-16T21:16:48.260Z,48.53
2023-02-16T21:19:23.289Z,53.40
2023-02-16T21:21:53.398Z,47.43
2023-02-16T21:24:25.402Z,47.83
2023-02-16T21:26:54.805Z,47.97
2023-02-16T21:29:24.237Z,47.10
2023-02-16T21:31:53.692Z,51.03
2023-02-16T21:34:23.216Z,52.83
2023-02-16T21:36:52.673Z,49.83
2023-02-16T21:39:45.314Z,52.53
2023-02-16T21:42:12.689Z,49.13
2023-02-16T21:44:43.218Z,49.93
2023-02-16T21:47:27.116Z,44.87
2023-02-16T21:49:56.512Z,45.93
2023-02-16T21:52:26.010Z,49.90
2023-02-16T21:55:10.453Z,49.53
2023-02-16T21:57:40.025Z,51.30
2023-02-16T22:00:11.291Z,52.43
2023-02-16T22:02:40.715Z,51.13
2023-02-16T22:05:11.838Z,48.40
2023-02-16T22:07:41.246Z,47.53
2023-02-16T22:10:13.709Z,44.13
2023-02-16T22:12:43.124Z,43.00
2023-02-16T22:15:12.536Z,47.03
2023-02-16T22:17:41.980Z,48.27
2023-02-16T22:20:12.911Z,43.53
2023-02-16T22:22:42.330Z,51.10
2023-02-16T22:25:14.909Z,45.60
2023-02-16T22:27:44.426Z,47.47
2023-02-16T22:30:14.450Z,42.57
2023-02-16T22:32:43.882Z,41.20
2023-02-16T22:35:13.299Z,42.80
2023-02-16T22:37:42.733Z,46.47
2023-02-16T22:40:14.888Z,48.20
2023-02-16T22:42:44.301Z,47.23
2023-02-16T22:45:13.786Z,41.40
2023-02-16T22:47:43.193Z,44.03
2023-02-16T22:50:13.513Z,43.87
2023-02-16T22:52:45.372Z,36.30
2023-02-16T22:55:17.366Z,38.10
2023-02-16T22:57:46.790Z,46.60
2023-02-16T23:00:18.563Z,41.67
2023-02-16T23:02:47.993Z,44.37
2023-02-16T23:05:17.440Z,48.93
2023-02-16T23:07:46.861Z,49.70
2023-02-16T23:10:19.426Z,41.53
2023-02-16T23:12:50.867Z,48.80
2023-02-16T23:15:20.544Z,43.73
2023-02-16T23:17:50.086Z,47.50
2023-02-16T23:20:19.599Z,45.37
2023-02-16T23:22:50.319Z,47.97
2023-02-16T23:25:37.575Z,48.37
2023-02-16T23:28:07.627Z,39.20
2023-02-16T23:30:37.083Z,44.00
2023-02-16T23:33:06.796Z,28.90
2023-02-16T23:35:36.159Z,40.70
2023-02-16T23:38:05.568Z,43.03
2023-02-16T23:40:37.555Z,45.00
2023-02-16T23:43:07.792Z,43.80
2023-02-16T23:45:37.282Z,41.70
2023-02-16T23:48:06.946Z,45.50
2023-02-16T23:50:36.341Z,34.17
2023-02-16T23:53:05.931Z,44.27
2023-02-16T23:55:37.917Z,41.83
2023-02-16T23:58:07.434Z,37.47
